sensor_id;sensor_type;location;lat;lon;timestamp;P1;durP1;ratioP1;P2;durP2;ratioP2
56233;SDS011;42141;53.240;6.580;2023-02-03T00:01:46;4.03;;;1.10;;
56233;SDS011;42141;53.240;6.580;2023-02-03T00:04:12;12.35;;;1.08;;
56233;SDS011;42141;53.240;6.580;2023-02-03T00:06:38;9.75;;;1.23;;
56233;SDS011;42141;53.240;6.580;2023-02-03T00:09:04;6.68;;;0.70;;
56233;SDS011;42141;53.240;6.580;2023-02-03T00:11:30;10.57;;;1.00;;
56233;SDS011;42141;53.240;6.580;2023-02-03T00:13:56;8.68;;;1.30;;
56233;SDS011;42141;53.240;6.580;2023-02-03T00:16:22;6.70;;;1.00;;
56233;SDS011;42141;53.240;6.580;2023-02-03T00:18:47;5.35;;;0.95;;
56233;SDS011;42141;53.240;6.580;2023-02-03T00:21:13;7.95;;;1.08;;
56233;SDS011;42141;53.240;6.580;2023-02-03T00:23:42;9.10;;;1.13;;
56233;SDS011;42141;53.240;6.580;2023-02-03T00:26:15;12.23;;;1.50;;
56233;SDS011;42141;53.240;6.580;2023-02-03T00:28:41;3.45;;;0.85;;
56233;SDS011;42141;53.240;6.580;2023-02-03T00:31:17;14.30;;;1.38;;
56233;SDS011;42141;53.240;6.580;2023-02-03T00:33:52;9.55;;;1.50;;
56233;SDS011;42141;53.240;6.580;2023-02-03T00:36:20;9.50;;;1.10;;
56233;SDS011;42141;53.240;6.580;2023-02-03T00:38:46;9.52;;;1.75;;
56233;SDS011;42141;53.240;6.580;2023-02-03T00:41:13;9.90;;;1.25;;
56233;SDS011;42141;53.240;6.580;2023-02-03T00:43:38;18.67;;;2.70;;
56233;SDS011;42141;53.240;6.580;2023-02-03T00:46:04;10.52;;;1.00;;
56233;SDS011;42141;53.240;6.580;2023-02-03T00:48:30;11.45;;;2.08;;
56233;SDS011;42141;53.240;6.580;2023-02-03T00:50:55;6.65;;;1.77;;
56233;SDS011;42141;53.240;6.580;2023-02-03T00:53:21;14.05;;;2.05;;
56233;SDS011;42141;53.240;6.580;2023-02-03T00:55:47;13.48;;;1.23;;
56233;SDS011;42141;53.240;6.580;2023-02-03T00:58:12;9.43;;;1.15;;
56233;SDS011;42141;53.240;6.580;2023-02-03T01:00:38;16.05;;;1.83;;
56233;SDS011;42141;53.240;6.580;2023-02-03T01:03:04;9.05;;;1.98;;
56233;SDS011;42141;53.240;6.580;2023-02-03T01:05:29;8.13;;;1.33;;
56233;SDS011;42141;53.240;6.580;2023-02-03T01:07:55;11.82;;;1.60;;
56233;SDS011;42141;53.240;6.580;2023-02-03T01:10:21;6.85;;;0.95;;
56233;SDS011;42141;53.240;6.580;2023-02-03T01:12:47;5.35;;;1.13;;
56233;SDS011;42141;53.240;6.580;2023-02-03T01:15:12;7.65;;;1.33;;
56233;SDS011;42141;53.240;6.580;2023-02-03T01:17:38;13.13;;;1.90;;
56233;SDS011;42141;53.240;6.580;2023-02-03T01:20:04;12.05;;;1.48;;
56233;SDS011;42141;53.240;6.580;2023-02-03T01:22:30;10.13;;;1.45;;
56233;SDS011;42141;53.240;6.580;2023-02-03T01:24:56;10.27;;;1.40;;
56233;SDS011;42141;53.240;6.580;2023-02-03T01:27:21;9.20;;;0.98;;
56233;SDS011;42141;53.240;6.580;2023-02-03T01:29:47;8.80;;;1.67;;
56233;SDS011;42141;53.240;6.580;2023-02-03T01:32:13;9.98;;;2.15;;
56233;SDS011;42141;53.240;6.580;2023-02-03T01:34:39;7.95;;;1.27;;
56233;SDS011;42141;53.240;6.580;2023-02-03T01:37:04;7.55;;;1.00;;
56233;SDS011;42141;53.240;6.580;2023-02-03T01:39:30;9.65;;;1.35;;
56233;SDS011;42141;53.240;6.580;2023-02-03T01:41:56;10.70;;;1.20;;
56233;SDS011;42141;53.240;6.580;2023-02-03T01:44:38;11.60;;;1.50;;
56233;SDS011;42141;53.240;6.580;2023-02-03T01:47:23;13.68;;;2.08;;
56233;SDS011;42141;53.240;6.580;2023-02-03T01:50:17;9.18;;;1.90;;
56233;SDS011;42141;53.240;6.580;2023-02-03T01:52:52;17.90;;;1.70;;
56233;SDS011;42141;53.240;6.580;2023-02-03T01:55:23;6.15;;;0.93;;
56233;SDS011;42141;53.240;6.580;2023-02-03T01:57:57;10.48;;;1.70;;
56233;SDS011;42141;53.240;6.580;2023-02-03T02:00:25;11.15;;;1.58;;
56233;SDS011;42141;53.240;6.580;2023-02-03T02:02:51;8.23;;;1.63;;
56233;SDS011;42141;53.240;6.580;2023-02-03T02:05:21;6.88;;;1.45;;
56233;SDS011;42141;53.240;6.580;2023-02-03T02:07:54;10.43;;;1.20;;
56233;SDS011;42141;53.240;6.580;2023-02-03T02:10:21;8.02;;;1.27;;
56233;SDS011;42141;53.240;6.580;2023-02-03T02:12:47;21.55;;;3.42;;
56233;SDS011;42141;53.240;6.580;2023-02-03T02:15:13;17.35;;;2.15;;
56233;SDS011;42141;53.240;6.580;2023-02-03T02:20:32;14.73;;;1.37;;
56233;SDS011;42141;53.240;6.580;2023-02-03T02:31:41;9.55;;;1.75;;
56233;SDS011;42141;53.240;6.580;2023-02-03T02:34:29;9.95;;;1.23;;
56233;SDS011;42141;53.240;6.580;2023-02-03T02:44:55;17.63;;;2.63;;
56233;SDS011;42141;53.240;6.580;2023-02-03T02:47:27;13.93;;;1.88;;
56233;SDS011;42141;53.240;6.580;2023-02-03T02:52:19;21.35;;;2.63;;
56233;SDS011;42141;53.240;6.580;2023-02-03T02:54:48;8.48;;;1.73;;
56233;SDS011;42141;53.240;6.580;2023-02-03T02:57:17;19.77;;;1.83;;
56233;SDS011;42141;53.240;6.580;2023-02-03T02:59:46;18.90;;;2.50;;
56233;SDS011;42141;53.240;6.580;2023-02-03T03:02:12;11.77;;;2.60;;
56233;SDS011;42141;53.240;6.580;2023-02-03T03:04:38;13.77;;;2.20;;
56233;SDS011;42141;53.240;6.580;2023-02-03T03:09:38;14.55;;;1.98;;
56233;SDS011;42141;53.240;6.580;2023-02-03T03:12:15;11.85;;;1.80;;
56233;SDS011;42141;53.240;6.580;2023-02-03T03:14:49;10.55;;;1.48;;
56233;SDS011;42141;53.240;6.580;2023-02-03T03:17:21;12.32;;;2.05;;
56233;SDS011;42141;53.240;6.580;2023-02-03T03:22:26;14.18;;;2.42;;
56233;SDS011;42141;53.240;6.580;2023-02-03T03:25:07;10.65;;;2.38;;
56233;SDS011;42141;53.240;6.580;2023-02-03T03:27:37;16.70;;;1.95;;
56233;SDS011;42141;53.240;6.580;2023-02-03T03:30:07;12.38;;;1.65;;
56233;SDS011;42141;53.240;6.580;2023-02-03T03:32:37;12.40;;;1.77;;
56233;SDS011;42141;53.240;6.580;2023-02-03T03:35:04;10.90;;;2.20;;
56233;SDS011;42141;53.240;6.580;2023-02-03T03:37:37;16.40;;;1.50;;
56233;SDS011;42141;53.240;6.580;2023-02-03T03:40:21;11.73;;;1.85;;
56233;SDS011;42141;53.240;6.580;2023-02-03T03:45:24;22.55;;;3.38;;
56233;SDS011;42141;53.240;6.580;2023-02-03T03:50:48;12.48;;;1.73;;
56233;SDS011;42141;53.240;6.580;2023-02-03T03:53:22;9.60;;;1.13;;
56233;SDS011;42141;53.240;6.580;2023-02-03T03:55:50;12.55;;;2.15;;
56233;SDS011;42141;53.240;6.580;2023-02-03T03:58:19;21.65;;;2.03;;
56233;SDS011;42141;53.240;6.580;2023-02-03T04:00:56;20.83;;;3.80;;
56233;SDS011;42141;53.240;6.580;2023-02-03T04:03:38;9.07;;;1.37;;
56233;SDS011;42141;53.240;6.580;2023-02-03T04:06:12;19.10;;;2.65;;
56233;SDS011;42141;53.240;6.580;2023-02-03T04:08:38;20.80;;;2.05;;
56233;SDS011;42141;53.240;6.580;2023-02-03T04:11:04;8.95;;;1.52;;
56233;SDS011;42141;53.240;6.580;2023-02-03T04:13:30;11.90;;;1.52;;
56233;SDS011;42141;53.240;6.580;2023-02-03T04:15:56;16.85;;;2.13;;
56233;SDS011;42141;53.240;6.580;2023-02-03T04:18:22;12.98;;;1.50;;
56233;SDS011;42141;53.240;6.580;2023-02-03T04:20:47;12.55;;;2.00;;
56233;SDS011;42141;53.240;6.580;2023-02-03T04:23:13;21.92;;;2.25;;
56233;SDS011;42141;53.240;6.580;2023-02-03T04:25:39;10.85;;;2.05;;
56233;SDS011;42141;53.240;6.580;2023-02-03T04:28:04;18.23;;;2.40;;
56233;SDS011;42141;53.240;6.580;2023-02-03T04:30:30;11.30;;;2.85;;
56233;SDS011;42141;53.240;6.580;2023-02-03T04:32:56;11.65;;;3.25;;
56233;SDS011;42141;53.240;6.580;2023-02-03T04:35:22;19.33;;;2.15;;
56233;SDS011;42141;53.240;6.580;2023-02-03T04:37:48;14.50;;;2.33;;
56233;SDS011;42141;53.240;6.580;2023-02-03T04:40:13;13.77;;;2.05;;
56233;SDS011;42141;53.240;6.580;2023-02-03T04:42:39;19.80;;;2.47;;
56233;SDS011;42141;53.240;6.580;2023-02-03T04:45:06;9.75;;;1.65;;
56233;SDS011;42141;53.240;6.580;2023-02-03T04:47:33;13.73;;;2.58;;
56233;SDS011;42141;53.240;6.580;2023-02-03T04:49:59;7.15;;;1.38;;
56233;SDS011;42141;53.240;6.580;2023-02-03T04:52:25;8.57;;;1.63;;
56233;SDS011;42141;53.240;6.580;2023-02-03T04:54:50;10.38;;;1.38;;
56233;SDS011;42141;53.240;6.580;2023-02-03T04:57:16;15.05;;;1.92;;
56233;SDS011;42141;53.240;6.580;2023-02-03T04:59:42;13.68;;;2.30;;
56233;SDS011;42141;53.240;6.580;2023-02-03T05:02:07;12.40;;;1.42;;
56233;SDS011;42141;53.240;6.580;2023-02-03T05:04:33;12.18;;;1.95;;
56233;SDS011;42141;53.240;6.580;2023-02-03T05:06:59;15.27;;;2.20;;
56233;SDS011;42141;53.240;6.580;2023-02-03T05:09:25;14.88;;;1.83;;
56233;SDS011;42141;53.240;6.580;2023-02-03T05:11:51;18.10;;;2.33;;
56233;SDS011;42141;53.240;6.580;2023-02-03T05:14:17;9.18;;;1.13;;
56233;SDS011;42141;53.240;6.580;2023-02-03T05:16:44;18.27;;;1.92;;
56233;SDS011;42141;53.240;6.580;2023-02-03T05:19:10;12.82;;;1.50;;
56233;SDS011;42141;53.240;6.580;2023-02-03T05:21:36;10.48;;;1.60;;
56233;SDS011;42141;53.240;6.580;2023-02-03T05:24:01;17.23;;;2.45;;
56233;SDS011;42141;53.240;6.580;2023-02-03T05:26:30;15.85;;;4.32;;
56233;SDS011;42141;53.240;6.580;2023-02-03T05:28:56;10.68;;;1.85;;
56233;SDS011;42141;53.240;6.580;2023-02-03T05:31:22;8.25;;;2.15;;
56233;SDS011;42141;53.240;6.580;2023-02-03T05:33:48;11.73;;;1.80;;
56233;SDS011;42141;53.240;6.580;2023-02-03T05:36:13;13.90;;;2.00;;
56233;SDS011;42141;53.240;6.580;2023-02-03T05:38:39;11.18;;;1.85;;
56233;SDS011;42141;53.240;6.580;2023-02-03T05:41:06;11.52;;;2.28;;
56233;SDS011;42141;53.240;6.580;2023-02-03T05:43:53;10.10;;;1.83;;
56233;SDS011;42141;53.240;6.580;2023-02-03T05:46:19;9.52;;;1.30;;
56233;SDS011;42141;53.240;6.580;2023-02-03T05:48:45;8.20;;;1.85;;
56233;SDS011;42141;53.240;6.580;2023-02-03T05:51:11;11.68;;;1.95;;
56233;SDS011;42141;53.240;6.580;2023-02-03T05:53:37;13.40;;;1.70;;
56233;SDS011;42141;53.240;6.580;2023-02-03T05:56:03;13.30;;;2.03;;
56233;SDS011;42141;53.240;6.580;2023-02-03T05:58:29;9.77;;;1.35;;
56233;SDS011;42141;53.240;6.580;2023-02-03T06:00:54;16.27;;;1.98;;
56233;SDS011;42141;53.240;6.580;2023-02-03T06:03:20;18.58;;;1.70;;
56233;SDS011;42141;53.240;6.580;2023-02-03T06:05:46;14.85;;;2.08;;
56233;SDS011;42141;53.240;6.580;2023-02-03T06:08:11;14.88;;;2.60;;
56233;SDS011;42141;53.240;6.580;2023-02-03T06:10:37;17.50;;;2.00;;
56233;SDS011;42141;53.240;6.580;2023-02-03T06:13:07;21.25;;;2.38;;
56233;SDS011;42141;53.240;6.580;2023-02-03T06:15:33;14.95;;;2.38;;
56233;SDS011;42141;53.240;6.580;2023-02-03T06:17:59;15.50;;;1.80;;
56233;SDS011;42141;53.240;6.580;2023-02-03T06:20:25;13.45;;;2.45;;
56233;SDS011;42141;53.240;6.580;2023-02-03T06:22:50;15.65;;;3.45;;
56233;SDS011;42141;53.240;6.580;2023-02-03T06:25:16;12.65;;;2.03;;
56233;SDS011;42141;53.240;6.580;2023-02-03T06:27:42;12.25;;;2.17;;
56233;SDS011;42141;53.240;6.580;2023-02-03T06:30:08;22.70;;;2.58;;
56233;SDS011;42141;53.240;6.580;2023-02-03T06:32:35;13.15;;;2.28;;
56233;SDS011;42141;53.240;6.580;2023-02-03T06:35:01;18.38;;;3.60;;
56233;SDS011;42141;53.240;6.580;2023-02-03T06:37:26;21.38;;;2.72;;
56233;SDS011;42141;53.240;6.580;2023-02-03T06:39:52;14.98;;;3.42;;
56233;SDS011;42141;53.240;6.580;2023-02-03T06:42:18;20.10;;;3.10;;
56233;SDS011;42141;53.240;6.580;2023-02-03T06:44:43;21.02;;;2.63;;
56233;SDS011;42141;53.240;6.580;2023-02-03T06:47:09;17.33;;;2.13;;
56233;SDS011;42141;53.240;6.580;2023-02-03T06:49:35;34.28;;;6.00;;
56233;SDS011;42141;53.240;6.580;2023-02-03T06:52:00;13.77;;;2.55;;
56233;SDS011;42141;53.240;6.580;2023-02-03T06:54:26;18.45;;;2.63;;
56233;SDS011;42141;53.240;6.580;2023-02-03T06:56:52;16.10;;;2.50;;
56233;SDS011;42141;53.240;6.580;2023-02-03T06:59:17;17.98;;;2.50;;
56233;SDS011;42141;53.240;6.580;2023-02-03T07:01:43;24.40;;;5.03;;
56233;SDS011;42141;53.240;6.580;2023-02-03T07:04:09;19.52;;;3.38;;
56233;SDS011;42141;53.240;6.580;2023-02-03T07:06:35;20.67;;;3.33;;
56233;SDS011;42141;53.240;6.580;2023-02-03T07:09:01;21.23;;;2.65;;
56233;SDS011;42141;53.240;6.580;2023-02-03T07:11:29;17.50;;;2.47;;
56233;SDS011;42141;53.240;6.580;2023-02-03T07:13:55;12.80;;;2.65;;
56233;SDS011;42141;53.240;6.580;2023-02-03T07:16:21;17.55;;;2.53;;
56233;SDS011;42141;53.240;6.580;2023-02-03T07:18:47;13.65;;;2.55;;
56233;SDS011;42141;53.240;6.580;2023-02-03T07:21:13;13.75;;;2.47;;
56233;SDS011;42141;53.240;6.580;2023-02-03T07:23:39;18.42;;;2.22;;
56233;SDS011;42141;53.240;6.580;2023-02-03T07:26:05;20.55;;;2.60;;
56233;SDS011;42141;53.240;6.580;2023-02-03T07:28:32;23.33;;;2.88;;
56233;SDS011;42141;53.240;6.580;2023-02-03T07:30:59;22.02;;;3.58;;
56233;SDS011;42141;53.240;6.580;2023-02-03T07:33:25;21.23;;;3.45;;
56233;SDS011;42141;53.240;6.580;2023-02-03T07:35:55;19.42;;;3.00;;
56233;SDS011;42141;53.240;6.580;2023-02-03T07:38:23;14.02;;;3.42;;
56233;SDS011;42141;53.240;6.580;2023-02-03T07:40:49;24.83;;;3.00;;
56233;SDS011;42141;53.240;6.580;2023-02-03T07:43:15;19.63;;;2.95;;
56233;SDS011;42141;53.240;6.580;2023-02-03T07:45:41;29.42;;;4.90;;
56233;SDS011;42141;53.240;6.580;2023-02-03T07:48:07;18.95;;;3.33;;
56233;SDS011;42141;53.240;6.580;2023-02-03T07:50:33;25.40;;;3.22;;
56233;SDS011;42141;53.240;6.580;2023-02-03T07:52:59;26.42;;;3.30;;
56233;SDS011;42141;53.240;6.580;2023-02-03T07:55:25;27.13;;;2.83;;
56233;SDS011;42141;53.240;6.580;2023-02-03T07:57:52;26.20;;;3.58;;
56233;SDS011;42141;53.240;6.580;2023-02-03T08:00:19;22.70;;;4.13;;
56233;SDS011;42141;53.240;6.580;2023-02-03T08:02:45;22.52;;;3.78;;
56233;SDS011;42141;53.240;6.580;2023-02-03T08:05:11;21.70;;;3.75;;
56233;SDS011;42141;53.240;6.580;2023-02-03T08:07:37;25.15;;;3.58;;
56233;SDS011;42141;53.240;6.580;2023-02-03T08:10:03;26.75;;;4.50;;
56233;SDS011;42141;53.240;6.580;2023-02-03T08:12:29;22.83;;;5.32;;
56233;SDS011;42141;53.240;6.580;2023-02-03T08:14:55;44.15;;;5.60;;
56233;SDS011;42141;53.240;6.580;2023-02-03T08:17:21;20.27;;;3.35;;
56233;SDS011;42141;53.240;6.580;2023-02-03T08:19:46;22.38;;;4.35;;
56233;SDS011;42141;53.240;6.580;2023-02-03T08:22:12;27.20;;;3.50;;
56233;SDS011;42141;53.240;6.580;2023-02-03T08:24:44;24.35;;;4.20;;
56233;SDS011;42141;53.240;6.580;2023-02-03T08:27:14;35.70;;;3.95;;
56233;SDS011;42141;53.240;6.580;2023-02-03T08:29:42;30.48;;;4.18;;
56233;SDS011;42141;53.240;6.580;2023-02-03T08:32:09;23.50;;;3.58;;
56233;SDS011;42141;53.240;6.580;2023-02-03T08:34:35;34.53;;;6.88;;
56233;SDS011;42141;53.240;6.580;2023-02-03T08:37:01;19.60;;;3.03;;
56233;SDS011;42141;53.240;6.580;2023-02-03T08:39:27;31.52;;;3.92;;
56233;SDS011;42141;53.240;6.580;2023-02-03T08:41:53;32.33;;;3.75;;
56233;SDS011;42141;53.240;6.580;2023-02-03T08:44:18;30.15;;;3.58;;
56233;SDS011;42141;53.240;6.580;2023-02-03T08:46:45;33.92;;;5.35;;
56233;SDS011;42141;53.240;6.580;2023-02-03T08:49:13;33.65;;;5.82;;
56233;SDS011;42141;53.240;6.580;2023-02-03T08:51:39;26.65;;;4.72;;
56233;SDS011;42141;53.240;6.580;2023-02-03T08:54:05;30.63;;;3.75;;
56233;SDS011;42141;53.240;6.580;2023-02-03T08:56:31;27.50;;;4.15;;
56233;SDS011;42141;53.240;6.580;2023-02-03T08:58:58;36.17;;;3.97;;
56233;SDS011;42141;53.240;6.580;2023-02-03T09:01:24;22.40;;;3.97;;
56233;SDS011;42141;53.240;6.580;2023-02-03T09:03:49;25.55;;;4.95;;
56233;SDS011;42141;53.240;6.580;2023-02-03T09:06:15;29.63;;;4.85;;
56233;SDS011;42141;53.240;6.580;2023-02-03T09:08:42;25.50;;;3.63;;
56233;SDS011;42141;53.240;6.580;2023-02-03T09:11:09;25.20;;;3.75;;
56233;SDS011;42141;53.240;6.580;2023-02-03T09:13:35;35.92;;;3.55;;
56233;SDS011;42141;53.240;6.580;2023-02-03T09:16:01;32.45;;;3.80;;
56233;SDS011;42141;53.240;6.580;2023-02-03T09:18:27;29.08;;;3.85;;
56233;SDS011;42141;53.240;6.580;2023-02-03T09:20:58;38.42;;;5.43;;
56233;SDS011;42141;53.240;6.580;2023-02-03T09:23:35;19.10;;;3.70;;
56233;SDS011;42141;53.240;6.580;2023-02-03T09:26:02;30.73;;;4.47;;
56233;SDS011;42141;53.240;6.580;2023-02-03T09:28:31;33.58;;;5.07;;
56233;SDS011;42141;53.240;6.580;2023-02-03T09:31:01;35.25;;;4.38;;
56233;SDS011;42141;53.240;6.580;2023-02-03T09:33:29;33.55;;;5.75;;
56233;SDS011;42141;53.240;6.580;2023-02-03T09:35:55;43.22;;;4.75;;
56233;SDS011;42141;53.240;6.580;2023-02-03T09:38:22;33.53;;;4.43;;
56233;SDS011;42141;53.240;6.580;2023-02-03T09:40:55;36.15;;;5.65;;
56233;SDS011;42141;53.240;6.580;2023-02-03T09:43:45;23.67;;;4.25;;
56233;SDS011;42141;53.240;6.580;2023-02-03T09:48:46;27.80;;;5.38;;
56233;SDS011;42141;53.240;6.580;2023-02-03T09:51:21;25.45;;;5.70;;
56233;SDS011;42141;53.240;6.580;2023-02-03T09:54:01;30.30;;;5.60;;
56233;SDS011;42141;53.240;6.580;2023-02-03T09:56:35;31.90;;;5.57;;
56233;SDS011;42141;53.240;6.580;2023-02-03T09:59:02;34.10;;;5.82;;
56233;SDS011;42141;53.240;6.580;2023-02-03T10:01:29;37.92;;;5.07;;
56233;SDS011;42141;53.240;6.580;2023-02-03T10:07:09;47.50;;;5.65;;
56233;SDS011;42141;53.240;6.580;2023-02-03T10:13:02;23.38;;;4.07;;
56233;SDS011;42141;53.240;6.580;2023-02-03T10:15:55;33.95;;;6.03;;
56233;SDS011;42141;53.240;6.580;2023-02-03T10:18:44;32.90;;;4.43;;
56233;SDS011;42141;53.240;6.580;2023-02-03T10:24:12;36.25;;;5.25;;
56233;SDS011;42141;53.240;6.580;2023-02-03T10:26:43;43.20;;;5.40;;
56233;SDS011;42141;53.240;6.580;2023-02-03T10:29:20;40.20;;;5.30;;
56233;SDS011;42141;53.240;6.580;2023-02-03T10:32:09;51.70;;;6.80;;
56233;SDS011;42141;53.240;6.580;2023-02-03T10:34:36;36.08;;;5.68;;
56233;SDS011;42141;53.240;6.580;2023-02-03T10:37:10;38.08;;;4.90;;
56233;SDS011;42141;53.240;6.580;2023-02-03T10:39:53;39.03;;;5.28;;
56233;SDS011;42141;53.240;6.580;2023-02-03T10:42:21;38.45;;;6.68;;
56233;SDS011;42141;53.240;6.580;2023-02-03T10:44:48;34.15;;;5.22;;
56233;SDS011;42141;53.240;6.580;2023-02-03T10:47:36;28.70;;;4.57;;
56233;SDS011;42141;53.240;6.580;2023-02-03T10:50:23;38.40;;;5.68;;
56233;SDS011;42141;53.240;6.580;2023-02-03T10:55:47;37.22;;;7.32;;
56233;SDS011;42141;53.240;6.580;2023-02-03T10:58:34;44.60;;;6.07;;
56233;SDS011;42141;53.240;6.580;2023-02-03T11:01:10;41.08;;;5.60;;
56233;SDS011;42141;53.240;6.580;2023-02-03T11:03:40;47.40;;;6.60;;
56233;SDS011;42141;53.240;6.580;2023-02-03T11:06:12;38.97;;;5.72;;
56233;SDS011;42141;53.240;6.580;2023-02-03T11:08:45;33.88;;;6.28;;
56233;SDS011;42141;53.240;6.580;2023-02-03T11:11:14;46.03;;;5.18;;
56233;SDS011;42141;53.240;6.580;2023-02-03T11:13:53;41.38;;;6.00;;
56233;SDS011;42141;53.240;6.580;2023-02-03T11:16:32;27.65;;;5.03;;
56233;SDS011;42141;53.240;6.580;2023-02-03T11:18:59;34.67;;;5.60;;
56233;SDS011;42141;53.240;6.580;2023-02-03T11:21:32;46.60;;;5.93;;
56233;SDS011;42141;53.240;6.580;2023-02-03T11:26:34;37.22;;;5.10;;
56233;SDS011;42141;53.240;6.580;2023-02-03T11:29:04;28.35;;;6.22;;
56233;SDS011;42141;53.240;6.580;2023-02-03T11:31:35;40.72;;;6.57;;
56233;SDS011;42141;53.240;6.580;2023-02-03T11:34:05;37.58;;;4.55;;
56233;SDS011;42141;53.240;6.580;2023-02-03T11:36:39;40.42;;;5.68;;
56233;SDS011;42141;53.240;6.580;2023-02-03T11:41:53;40.45;;;6.13;;
56233;SDS011;42141;53.240;6.580;2023-02-03T11:46:56;36.00;;;6.22;;
56233;SDS011;42141;53.240;6.580;2023-02-03T11:55:37;34.17;;;5.15;;
56233;SDS011;42141;53.240;6.580;2023-02-03T11:58:55;38.15;;;6.25;;
56233;SDS011;42141;53.240;6.580;2023-02-03T12:14:58;37.97;;;5.60;;
56233;SDS011;42141;53.240;6.580;2023-02-03T12:20:30;30.55;;;5.78;;
56233;SDS011;42141;53.240;6.580;2023-02-03T12:29:00;37.25;;;5.47;;
56233;SDS011;42141;53.240;6.580;2023-02-03T12:31:59;29.70;;;5.05;;
56233;SDS011;42141;53.240;6.580;2023-02-03T12:34:52;22.20;;;4.35;;
56233;SDS011;42141;53.240;6.580;2023-02-03T12:37:27;32.03;;;5.65;;
56233;SDS011;42141;53.240;6.580;2023-02-03T12:39:59;39.30;;;4.65;;
56233;SDS011;42141;53.240;6.580;2023-02-03T12:42:38;30.02;;;4.60;;
56233;SDS011;42141;53.240;6.580;2023-02-03T12:45:31;39.25;;;5.18;;
56233;SDS011;42141;53.240;6.580;2023-02-03T12:48:02;33.72;;;5.13;;
56233;SDS011;42141;53.240;6.580;2023-02-03T12:50:48;36.33;;;8.45;;
56233;SDS011;42141;53.240;6.580;2023-02-03T12:53:17;40.05;;;5.93;;
56233;SDS011;42141;53.240;6.580;2023-02-03T12:55:54;28.48;;;4.63;;
56233;SDS011;42141;53.240;6.580;2023-02-03T12:58:44;35.45;;;4.20;;
56233;SDS011;42141;53.240;6.580;2023-02-03T13:01:25;35.75;;;6.07;;
56233;SDS011;42141;53.240;6.580;2023-02-03T13:03:59;23.80;;;4.32;;
56233;SDS011;42141;53.240;6.580;2023-02-03T13:09:40;35.10;;;5.68;;
56233;SDS011;42141;53.240;6.580;2023-02-03T13:14:51;49.13;;;6.40;;
56233;SDS011;42141;53.240;6.580;2023-02-03T13:17:28;48.10;;;5.70;;
56233;SDS011;42141;53.240;6.580;2023-02-03T13:20:21;41.40;;;5.93;;
56233;SDS011;42141;53.240;6.580;2023-02-03T13:22:49;40.13;;;6.65;;
56233;SDS011;42141;53.240;6.580;2023-02-03T13:25:17;41.22;;;7.38;;
56233;SDS011;42141;53.240;6.580;2023-02-03T13:35:49;41.15;;;6.60;;
56233;SDS011;42141;53.240;6.580;2023-02-03T13:38:30;47.15;;;6.75;;
56233;SDS011;42141;53.240;6.580;2023-02-03T13:41:41;49.55;;;6.93;;
56233;SDS011;42141;53.240;6.580;2023-02-03T13:44:17;38.53;;;6.47;;
56233;SDS011;42141;53.240;6.580;2023-02-03T13:46:48;50.28;;;6.00;;
56233;SDS011;42141;53.240;6.580;2023-02-03T13:49:29;38.72;;;6.30;;
56233;SDS011;42141;53.240;6.580;2023-02-03T13:51:57;39.72;;;6.03;;
56233;SDS011;42141;53.240;6.580;2023-02-03T13:54:28;46.83;;;7.32;;
56233;SDS011;42141;53.240;6.580;2023-02-03T13:57:00;42.38;;;5.95;;
56233;SDS011;42141;53.240;6.580;2023-02-03T14:04:52;44.38;;;6.20;;
56233;SDS011;42141;53.240;6.580;2023-02-03T14:25:29;30.58;;;5.13;;
56233;SDS011;42141;53.240;6.580;2023-02-03T14:27:58;38.40;;;6.38;;
56233;SDS011;42141;53.240;6.580;2023-02-03T14:30:27;39.08;;;5.45;;
56233;SDS011;42141;53.240;6.580;2023-02-03T14:32:54;30.25;;;5.90;;
56233;SDS011;42141;53.240;6.580;2023-02-03T14:35:23;30.77;;;4.50;;
56233;SDS011;42141;53.240;6.580;2023-02-03T14:38:04;29.88;;;5.72;;
56233;SDS011;42141;53.240;6.580;2023-02-03T14:40:36;30.55;;;4.43;;
56233;SDS011;42141;53.240;6.580;2023-02-03T14:46:14;31.60;;;5.30;;
56233;SDS011;42141;53.240;6.580;2023-02-03T14:52:05;34.40;;;4.63;;
56233;SDS011;42141;53.240;6.580;2023-02-03T15:02:22;40.45;;;5.90;;
56233;SDS011;42141;53.240;6.580;2023-02-03T15:05:37;16.70;;;4.80;;
56233;SDS011;42141;53.240;6.580;2023-02-03T15:07:38;36.42;;;6.35;;
56233;SDS011;42141;53.240;6.580;2023-02-03T15:10:16;35.83;;;4.95;;
56233;SDS011;42141;53.240;6.580;2023-02-03T15:12:49;24.63;;;4.13;;
56233;SDS011;42141;53.240;6.580;2023-02-03T15:17:52;29.58;;;5.18;;
56233;SDS011;42141;53.240;6.580;2023-02-03T15:22:55;34.33;;;4.68;;
56233;SDS011;42141;53.240;6.580;2023-02-03T15:25:21;27.52;;;3.53;;
56233;SDS011;42141;53.240;6.580;2023-02-03T15:27:53;29.98;;;4.18;;
56233;SDS011;42141;53.240;6.580;2023-02-03T15:30:23;21.98;;;3.60;;
56233;SDS011;42141;53.240;6.580;2023-02-03T15:33:03;33.10;;;4.60;;
56233;SDS011;42141;53.240;6.580;2023-02-03T15:35:43;29.13;;;4.20;;
56233;SDS011;42141;53.240;6.580;2023-02-03T15:38:13;31.30;;;4.50;;
56233;SDS011;42141;53.240;6.580;2023-02-03T15:40:44;28.77;;;3.88;;
56233;SDS011;42141;53.240;6.580;2023-02-03T15:43:21;29.85;;;4.45;;
56233;SDS011;42141;53.240;6.580;2023-02-03T15:46:16;21.50;;;3.47;;
56233;SDS011;42141;53.240;6.580;2023-02-03T15:51:22;25.60;;;2.78;;
56233;SDS011;42141;53.240;6.580;2023-02-03T15:54:21;30.83;;;4.63;;
56233;SDS011;42141;53.240;6.580;2023-02-03T15:57:07;24.45;;;5.25;;
56233;SDS011;42141;53.240;6.580;2023-02-03T15:59:51;28.42;;;4.07;;
56233;SDS011;42141;53.240;6.580;2023-02-03T16:05:03;52.97;;;7.38;;
56233;SDS011;42141;53.240;6.580;2023-02-03T16:07:36;30.38;;;4.68;;
56233;SDS011;42141;53.240;6.580;2023-02-03T16:10:02;38.47;;;4.97;;
56233;SDS011;42141;53.240;6.580;2023-02-03T16:12:31;24.65;;;3.70;;
56233;SDS011;42141;53.240;6.580;2023-02-03T16:14:58;43.70;;;6.25;;
56233;SDS011;42141;53.240;6.580;2023-02-03T16:17:32;38.83;;;7.15;;
56233;SDS011;42141;53.240;6.580;2023-02-03T16:20:20;39.92;;;6.22;;
56233;SDS011;42141;53.240;6.580;2023-02-03T16:23:33;31.10;;;5.25;;
56233;SDS011;42141;53.240;6.580;2023-02-03T16:25:43;37.70;;;6.63;;
56233;SDS011;42141;53.240;6.580;2023-02-03T16:31:51;28.25;;;4.53;;
56233;SDS011;42141;53.240;6.580;2023-02-03T16:34:36;30.40;;;4.55;;
56233;SDS011;42141;53.240;6.580;2023-02-03T16:40:09;27.63;;;5.28;;
56233;SDS011;42141;53.240;6.580;2023-02-03T16:42:55;28.27;;;4.85;;
56233;SDS011;42141;53.240;6.580;2023-02-03T16:45:39;27.60;;;3.95;;
56233;SDS011;42141;53.240;6.580;2023-02-03T16:48:24;38.22;;;4.70;;
56233;SDS011;42141;53.240;6.580;2023-02-03T16:51:15;32.67;;;4.28;;
56233;SDS011;42141;53.240;6.580;2023-02-03T16:53:42;30.75;;;3.80;;
56233;SDS011;42141;53.240;6.580;2023-02-03T16:56:10;28.50;;;3.78;;
56233;SDS011;42141;53.240;6.580;2023-02-03T16:58:37;31.13;;;4.22;;
56233;SDS011;42141;53.240;6.580;2023-02-03T17:01:04;30.80;;;4.05;;
56233;SDS011;42141;53.240;6.580;2023-02-03T17:03:32;32.30;;;4.47;;
56233;SDS011;42141;53.240;6.580;2023-02-03T17:06:04;30.88;;;4.47;;
56233;SDS011;42141;53.240;6.580;2023-02-03T17:08:34;22.75;;;3.03;;
56233;SDS011;42141;53.240;6.580;2023-02-03T17:11:05;31.98;;;4.18;;
56233;SDS011;42141;53.240;6.580;2023-02-03T17:13:32;37.70;;;4.00;;
56233;SDS011;42141;53.240;6.580;2023-02-03T17:15:58;29.92;;;4.05;;
56233;SDS011;42141;53.240;6.580;2023-02-03T17:18:24;22.98;;;4.00;;
56233;SDS011;42141;53.240;6.580;2023-02-03T17:20:50;27.55;;;4.07;;
56233;SDS011;42141;53.240;6.580;2023-02-03T17:23:16;37.03;;;4.32;;
56233;SDS011;42141;53.240;6.580;2023-02-03T17:25:46;31.90;;;4.82;;
56233;SDS011;42141;53.240;6.580;2023-02-03T17:28:13;38.60;;;5.60;;